Contact Us:
Email: info@sawbill.com
Phone: (218)663-7150
Fax: (218)663-7980
Mail: 4620 Sawbill Trail
Box 2129
Tofte, MN 55615


Powered by
Movable Type 3.15
 
Sawbill Weather History Archives: July 2010
Current Sawbill Weather History | « June 2010 | August 2010 »


Date

High
Temperature

Low
Temperature

Barometric
Pressure

Relative
Humidity 7AM

9 AM
Temperature

Moisture

Snow

7/31/10 74 58 30.30 90% 59 0
7/30/10 73 58 30.33 96% 60 .14"
7/29/10 74 57 30.42 81% 58 0
7/28/10 72 57 30.47 84% 57 0
7/27/10 78 56 30.24 73% 60 .04"
7/26/10 77 58 30.28 89% 58 0
7/25/10 77 56 30.47 79% 56 0
7/24/10 75 56 30.30 88% 56 0
7/23/10 71 62 30.30 91% 62 .03"
7/22/10 74 57 30.99 98% 63 .16"
7/21/10 71 55 30.33 91% 57 0
7/20/10 67 58 30.30 97% 58 1"
7/19/10 73 54 30.30 98% 58 0
7/18/10 74 56 30.27 82% 57 0
7/17/10 73 59 30.18 91% 60 .06"
7/16/10 76 58 30.24 89% 59 Trace
7/15/10 72 58 30.12 93% 61 0
7/14/10 67 58 30.12 84% 58 .56"
7/13/10 71 59 30.18 98% 59 0
7/12/10 71 47 30.30 87% 63 0
7/11/10 73 50 30.18 87% 60 0
7/10/10 81 65 30.06 86% 66 Trace
7/9/10 75 57 30.24 83% 57 0
7/8/10 76 53 30.31 88% 53 0
7/7/10 76 59 30.36 95% 63 .08"
7/6/10 79 58 30.39 80% 59 0
7/5/10 78 64 30.18 94% 66 .02"
7/4/10 73 63 30.18 97% 64 .43"
7/3/10 85 69 30.03 90% 73 Trace
7/2/10 80 58 30.18 85% 69 .03"
 


Home I Trip Planning I Rentals and Outfitting I Reservations I Campgrounds I Sawbill Store I Sawbill News I Contact

© 1997 - 2017, Sawbill Canoe Outfitters, Inc. I Privacy Policy